Green Fast — ZDHA9 — position and weather

sailwx.info

Track history (hours):
 
Tides and Currents Weather Stations Pressure Air Temp Water Temp Dewpoint Dewpoint Depression Visibility Wind Speed Wind Dir Waves Ship Positions

Green Fast

Last reported at 2015-Jul-29 19:27 UTC. Time now 2015-Jul-29 20:06 UTC.
Position N 39°24' W 000°17'.

Length 118 m; draft 5.2 m.

Type: Cargo ship. MMSI: 236294000.

Date/timePositionNaut miles runAvg speedWind from/ knotsBaromVisibWave heightAir tempDewpointWater temp
2015-Jul-29 19:27N 39°24' W 000°17'0 0.0
2015-Jul-29 18:33N 39°24' W 000°17'0 0.1
2015-Jul-29 17:30N 39°24' W 000°17'3 2.8
2015-Jul-29 16:32N 39°26' W 000°19'0 0.0
2015-Jul-29 15:32N 39°26' W 000°19'0 0.0
2015-Jul-29 14:32N 39°26' W 000°19'0 0.0
2015-Jul-29 13:32N 39°26' W 000°19'0 0.0
2015-Jul-29 12:32N 39°26' W 000°19'0 0.0
2015-Jul-29 11:29N 39°26' W 000°19'0 0.0
2015-Jul-29 10:32N 39°26' W 000°19'0 0.0
2015-Jul-29 09:33N 39°26' W 000°19'0 0.0
2015-Jul-29 08:34N 39°26' W 000°19'0 0.0
2015-Jul-29 07:33N 39°26' W 000°19'0 0.0
2015-Jul-29 06:33N 39°26' W 000°19'3 2.8
2015-Jul-29 05:33N 39°25' W 000°16'6110.1
2015-Jul-28 23:32N 38°42' E 000°40'1211.9
2015-Jul-28 22:29N 38°33' E 000°51'1112.1
2015-Jul-28 21:33N 38°26' E 001°02'1712.1
2015-Jul-28 20:10N 38°14' E 001°17'712.1
2015-Jul-28 19:33N 38°09' E 001°24'1212.2
2015-Jul-28 18:33N 38°00' E 001°35'1211.8
2015-Jul-28 17:33N 37°52' E 001°46'1211.5
2015-Jul-28 16:32N 37°44' E 001°56'1111.0
2015-Jul-28 15:33N 37°36' E 002°06'1511.7
2015-Jul-28 14:14N 37°25' E 002°20'811.9
2015-Jul-28 13:33N 37°20' E 002°27'1212.0
2015-Jul-28 12:33N 37°11' E 002°38'33 1.0
2015-Jul-27 03:07N 36°46' E 003°04'0 0.0
2015-Jul-26 22:19N 36°46' E 003°04'0 0.0
2015-Jul-26 17:31N 36°46' E 003°04'2 0.1
2015-Jul-25 08:29N 36°48' E 003°05'0 0.0
2015-Jul-25 07:28N 36°48' E 003°05'0 0.0
2015-Jul-25 06:22N 36°48' E 003°05'0 0.0
2015-Jul-25 05:31N 36°48' E 003°05'0 0.0
2015-Jul-25 04:16N 36°48' E 003°05'0 0.0
2015-Jul-25 01:25N 36°48' E 003°05'0 0.0
2015-Jul-25 00:31N 36°48' E 003°05'0 0.0
2015-Jul-24 23:31N 36°48' E 003°05'0 0.0
2015-Jul-24 21:22N 36°48' E 003°05'0 0.0
2015-Jul-24 20:22N 36°48' E 003°05'0 0.0
2015-Jul-24 19:31N 36°48' E 003°05'0 0.0
2015-Jul-24 18:31N 36°48' E 003°05'0 0.0
2015-Jul-24 17:31N 36°48' E 003°05'0 0.0
2015-Jul-24 16:25N 36°48' E 003°05'0 0.0
2015-Jul-24 13:28N 36°48' E 003°05'0 0.0
2015-Jul-24 12:22N 36°48' E 003°05'0 0.0
2015-Jul-24 11:28N 36°48' E 003°05'0 0.0
2015-Jul-22 23:10N 36°48' E 003°05'0 0.0
2015-Jul-22 22:25N 36°48' E 003°05'0 0.0
2015-Jul-22 21:19N 36°48' E 003°05'0 0.0
2015-Jul-22 20:31N 36°48' E 003°05'0 0.0
2015-Jul-22 19:31N 36°48' E 003°05'0 0.0
2015-Jul-22 18:31N 36°48' E 003°05'0 0.0
2015-Jul-22 17:31N 36°48' E 003°05'0 0.0
2015-Jul-22 16:31N 36°48' E 003°05'0 0.0
2015-Jul-22 15:22N 36°48' E 003°05'0 0.0
2015-Jul-22 14:22N 36°48' E 003°05'0 0.0
2015-Jul-22 13:28N 36°48' E 003°05'0 0.0
2015-Jul-22 12:31N 36°48' E 003°05'0 0.0
2015-Jul-22 11:31N 36°48' E 003°05'0 0.0
2015-Jul-22 10:25N 36°48' E 003°05'0 0.0
2015-Jul-22 09:31N 36°48' E 003°05'0 0.0
2015-Jul-22 08:31N 36°48' E 003°05'0 0.0
2015-Jul-22 07:07N 36°48' E 003°05'0 0.0
2015-Jul-22 06:25N 36°48' E 003°05'0 0.0
2015-Jul-22 05:31N 36°48' E 003°05'0 0.0
2015-Jul-22 03:31N 36°48' E 003°05'0 0.0
2015-Jul-22 02:25N 36°48' E 003°05'0 0.0
2015-Jul-22 01:25N 36°48' E 003°05'0 0.0
2015-Jul-21 23:28N 36°48' E 003°05'0 0.0
2015-Jul-21 22:22N 36°48' E 003°05'0 0.0
2015-Jul-21 20:22N 36°48' E 003°05'0 0.0
2015-Jul-21 19:31N 36°48' E 003°05'0 0.0
2015-Jul-21 16:31N 36°48' E 003°05'0 0.0
2015-Jul-21 15:31N 36°48' E 003°05'0 0.0
2015-Jul-21 14:28N 36°48' E 003°05'0 0.0
2015-Jul-21 13:22N 36°48' E 003°05'0 0.0
2015-Jul-21 12:25N 36°48' E 003°05'0 0.0
2015-Jul-21 11:31N 36°48' E 003°05'0 0.0
2015-Jul-21 08:25N 36°48' E 003°05'0 0.0
2015-Jul-20 23:16N 36°48' E 003°05'0 0.0
2015-Jul-20 21:31N 36°48' E 003°05'0 0.0
2015-Jul-20 20:28N 36°48' E 003°05'0 0.0
2015-Jul-20 18:28N 36°48' E 003°05'0 0.0
2015-Jul-20 14:31N 36°48' E 003°05'0 0.0
2015-Jul-20 13:28N 36°48' E 003°05'0 0.0
2015-Jul-20 12:31N 36°48' E 003°05'0 0.0
2015-Jul-20 11:31N 36°48' E 003°05'0 0.0
2015-Jul-20 10:31N 36°48' E 003°05'0 0.0
2015-Jul-20 09:28N 36°48' E 003°05'0 0.0
2015-Jul-20 08:28N 36°48' E 003°05'0 0.0
2015-Jul-20 07:31N 36°48' E 003°05'1 0.3
2015-Jul-20 04:33N 36°48' E 003°06'2310.8
2015-Jul-20 02:26N 37°09' E 003°17'1010.9
2015-Jul-20 01:33N 37°18' E 003°22'1110.9
2015-Jul-20 00:33N 37°28' E 003°27'1111.0
2015-Jul-19 23:33N 37°38' E 003°32'1211.2
2015-Jul-19 22:31N 37°49' E 003°38'1111.2
2015-Jul-19 21:33N 37°59' E 003°43'1111.1
2015-Jul-19 20:33N 38°09' E 003°49'1110.8
2015-Jul-19 19:33N 38°19' E 003°54'  
Track history (hours):
 
Tides and Currents Weather Stations Pressure Air Temp Water Temp Dewpoint Dewpoint Depression Visibility Wind Speed Wind Dir Waves Ship Positions

Green Fast

Last reported at 2015-Jul-29 19:27 UTC. Time now 2015-Jul-29 20:06 UTC.
Position N 39°24' W 000°17'.

Length 118 m; draft 5.2 m.

Type: Cargo ship. MMSI: 236294000.

Date/timePositionNaut miles runAvg speedWind from/ knotsBaromVisibWave heightAir tempDewpointWater temp
2015-Jul-29 19:27N 39°24' W 000°17'0 0.0
2015-Jul-29 18:33N 39°24' W 000°17'0 0.1
2015-Jul-29 17:30N 39°24' W 000°17'3 2.8
2015-Jul-29 16:32N 39°26' W 000°19'0 0.0
2015-Jul-29 15:32N 39°26' W 000°19'0 0.0
2015-Jul-29 14:32N 39°26' W 000°19'0 0.0
2015-Jul-29 13:32N 39°26' W 000°19'0 0.0
2015-Jul-29 12:32N 39°26' W 000°19'0 0.0
2015-Jul-29 11:29N 39°26' W 000°19'0 0.0
2015-Jul-29 10:32N 39°26' W 000°19'0 0.0
2015-Jul-29 09:33N 39°26' W 000°19'0 0.0
2015-Jul-29 08:34N 39°26' W 000°19'0 0.0
2015-Jul-29 07:33N 39°26' W 000°19'0 0.0
2015-Jul-29 06:33N 39°26' W 000°19'3 2.8
2015-Jul-29 05:33N 39°25' W 000°16'6110.1
2015-Jul-28 23:32N 38°42' E 000°40'1211.9
2015-Jul-28 22:29N 38°33' E 000°51'1112.1
2015-Jul-28 21:33N 38°26' E 001°02'1712.1
2015-Jul-28 20:10N 38°14' E 001°17'712.1
2015-Jul-28 19:33N 38°09' E 001°24'1212.2
2015-Jul-28 18:33N 38°00' E 001°35'1211.8
2015-Jul-28 17:33N 37°52' E 001°46'1211.5
2015-Jul-28 16:32N 37°44' E 001°56'1111.0
2015-Jul-28 15:33N 37°36' E 002°06'1511.7
2015-Jul-28 14:14N 37°25' E 002°20'811.9
2015-Jul-28 13:33N 37°20' E 002°27'1212.0
2015-Jul-28 12:33N 37°11' E 002°38'33 1.0
2015-Jul-27 03:07N 36°46' E 003°04'0 0.0
2015-Jul-26 22:19N 36°46' E 003°04'0 0.0
2015-Jul-26 17:31N 36°46' E 003°04'2 0.1
2015-Jul-25 08:29N 36°48' E 003°05'0 0.0
2015-Jul-25 07:28N 36°48' E 003°05'0 0.0
2015-Jul-25 06:22N 36°48' E 003°05'0 0.0
2015-Jul-25 05:31N 36°48' E 003°05'0 0.0
2015-Jul-25 04:16N 36°48' E 003°05'0 0.0
2015-Jul-25 01:25N 36°48' E 003°05'0 0.0
2015-Jul-25 00:31N 36°48' E 003°05'0 0.0
2015-Jul-24 23:31N 36°48' E 003°05'0 0.0
2015-Jul-24 21:22N 36°48' E 003°05'0 0.0
2015-Jul-24 20:22N 36°48' E 003°05'0 0.0
2015-Jul-24 19:31N 36°48' E 003°05'0 0.0
2015-Jul-24 18:31N 36°48' E 003°05'0 0.0
2015-Jul-24 17:31N 36°48' E 003°05'0 0.0
2015-Jul-24 16:25N 36°48' E 003°05'0 0.0
2015-Jul-24 13:28N 36°48' E 003°05'0 0.0
2015-Jul-24 12:22N 36°48' E 003°05'0 0.0
2015-Jul-24 11:28N 36°48' E 003°05'0 0.0
2015-Jul-22 23:10N 36°48' E 003°05'0 0.0
2015-Jul-22 22:25N 36°48' E 003°05'0 0.0
2015-Jul-22 21:19N 36°48' E 003°05'0 0.0
2015-Jul-22 20:31N 36°48' E 003°05'0 0.0
2015-Jul-22 19:31N 36°48' E 003°05'0 0.0
2015-Jul-22 18:31N 36°48' E 003°05'0 0.0
2015-Jul-22 17:31N 36°48' E 003°05'0 0.0
2015-Jul-22 16:31N 36°48' E 003°05'0 0.0
2015-Jul-22 15:22N 36°48' E 003°05'0 0.0
2015-Jul-22 14:22N 36°48' E 003°05'0 0.0
2015-Jul-22 13:28N 36°48' E 003°05'0 0.0
2015-Jul-22 12:31N 36°48' E 003°05'0 0.0
2015-Jul-22 11:31N 36°48' E 003°05'0 0.0
2015-Jul-22 10:25N 36°48' E 003°05'0 0.0
2015-Jul-22 09:31N 36°48' E 003°05'0 0.0
2015-Jul-22 08:31N 36°48' E 003°05'0 0.0
2015-Jul-22 07:07N 36°48' E 003°05'0 0.0
2015-Jul-22 06:25N 36°48' E 003°05'0 0.0
2015-Jul-22 05:31N 36°48' E 003°05'0 0.0
2015-Jul-22 03:31N 36°48' E 003°05'0 0.0
2015-Jul-22 02:25N 36°48' E 003°05'0 0.0
2015-Jul-22 01:25N 36°48' E 003°05'0 0.0
2015-Jul-21 23:28N 36°48' E 003°05'0 0.0
2015-Jul-21 22:22N 36°48' E 003°05'0 0.0
2015-Jul-21 20:22N 36°48' E 003°05'0 0.0
2015-Jul-21 19:31N 36°48' E 003°05'0 0.0
2015-Jul-21 16:31N 36°48' E 003°05'0 0.0
2015-Jul-21 15:31N 36°48' E 003°05'0 0.0
2015-Jul-21 14:28N 36°48' E 003°05'0 0.0
2015-Jul-21 13:22N 36°48' E 003°05'0 0.0
2015-Jul-21 12:25N 36°48' E 003°05'0 0.0
2015-Jul-21 11:31N 36°48' E 003°05'0 0.0
2015-Jul-21 08:25N 36°48' E 003°05'0 0.0
2015-Jul-20 23:16N 36°48' E 003°05'0 0.0
2015-Jul-20 21:31N 36°48' E 003°05'0 0.0
2015-Jul-20 20:28N 36°48' E 003°05'0 0.0
2015-Jul-20 18:28N 36°48' E 003°05'0 0.0
2015-Jul-20 14:31N 36°48' E 003°05'0 0.0
2015-Jul-20 13:28N 36°48' E 003°05'0 0.0
2015-Jul-20 12:31N 36°48' E 003°05'0 0.0
2015-Jul-20 11:31N 36°48' E 003°05'0 0.0
2015-Jul-20 10:31N 36°48' E 003°05'0 0.0
2015-Jul-20 09:28N 36°48' E 003°05'0 0.0
2015-Jul-20 08:28N 36°48' E 003°05'0 0.0
2015-Jul-20 07:31N 36°48' E 003°05'1 0.3
2015-Jul-20 04:33N 36°48' E 003°06'2310.8
2015-Jul-20 02:26N 37°09' E 003°17'1010.9
2015-Jul-20 01:33N 37°18' E 003°22'1110.9
2015-Jul-20 00:33N 37°28' E 003°27'1111.0
2015-Jul-19 23:33N 37°38' E 003°32'1211.2
2015-Jul-19 22:31N 37°49' E 003°38'1111.2
2015-Jul-19 21:33N 37°59' E 003°43'1111.1
2015-Jul-19 20:33N 38°09' E 003°49'1110.8
2015-Jul-19 19:33N 38°19' E 003°54'  

Dump ship's entire track history